Isola di Capo Rizzuto, Italy

1:49 AM CEST on July 31, 2016 (GMT +0200)
Belcastro Marina (CZ) | | Change Station
Active Advisory: >

Elev 0 ft 38.93 °N, 16.89 °E | Updated 15 seconds ago

Scattered Clouds
Scattered Clouds
75.9 °F
Feels Like 77 °F
N
0.7
Wind Variable Wind from SW
Gusts 3.5 mph

Today
High -- | Low -- °F
--% Chance of Precip.
Yesterday
High -- | Low -- °F
Precip. -- in
Pressure 29.98 in
Visibility 6.2 miles
Clouds Scattered Clouds 1500 ft
Scattered Clouds 3000 ft
Heat Index 77 °F
Dew Point 66 °F
Humidity 71%
Rainfall 0.00 in
Snow Depth Not available.
5:51 AM 8:03 PM
Waning Crescent, 10% visible
METAR LICA 302250Z 22004KT 190V270 9999 SCT015 SCT030 26/22 Q1015
Pressure 29.98 in
Visibility 6.2 miles
Clouds Scattered Clouds 1500 ft
Scattered Clouds 3000 ft
Heat Index 77 °F
Dew Point 66 °F
Humidity 71%
Rainfall 0.00 in
Snow Depth Not available.
5:51 AM 8:03 PM
Waning Crescent, 10% visible
METAR LICA 302250Z 22004KT 190V270 9999 SCT015 SCT030 26/22 Q1015

10-Day Weather Forecast

×

Almanac

Astronomy

Jul. 31, 2016 Rise Set
Actual Time
Civil Twilight
Nautical Twilight
Astronomical Twilight
Moon
Length of Visible Light
Length of Day
Tomorrow will be .
, % of the Moon is Illuminated

Today's Extremes

Country Highs Country Lows

Community

WunderPhotos

Upload Photos

1,928,680 photos uploaded!

WunderBlog® & News

Nearby

Air Quality

  Air Quality AQ Index Pollutant
Not available.

Snow Depth

Station Depth Elevation

Earthquake Activity

City Distance Mag. Time & Date
Minimum magnitude displayed is 2.5.

Coastal Water Temperatures

Place Temperature

Stations

Nearby Weather Stations

Station Location Temp. Windchill Dew Point Humidity Wind Precip. Elev Updated Type